createdAt,value
2019-05-17T00:00:41.572Z,5.60
2019-05-17T00:03:12.984Z,5.60
2019-05-17T00:05:49.976Z,5.60
2019-05-17T00:08:31.923Z,5.70
2019-05-17T00:10:57.084Z,5.60
2019-05-17T00:13:32.178Z,5.60
2019-05-17T00:16:08.076Z,5.60
2019-05-17T00:18:42.604Z,5.40
2019-05-17T00:21:14.005Z,5.30
2019-05-17T00:23:49.712Z,5.40
2019-05-17T00:26:26.819Z,5.50
2019-05-17T00:28:59.843Z,5.50
2019-05-17T00:31:32.664Z,5.40
2019-05-17T00:34:07.137Z,5.50
2019-05-17T00:36:40.790Z,5.50
2019-05-17T00:39:13.225Z,5.40
2019-05-17T00:41:47.216Z,5.40
2019-05-17T00:44:23.689Z,5.30
2019-05-17T00:46:58.883Z,5.30
2019-05-17T00:49:34.122Z,5.30
2019-05-17T00:52:07.216Z,5.30
2019-05-17T00:54:37.973Z,5.40
2019-05-17T00:57:11.094Z,5.30
2019-05-17T00:59:43.651Z,5.40
2019-05-17T01:02:17.300Z,5.40
2019-05-17T01:04:50.291Z,5.30
2019-05-17T01:07:24.079Z,5.30
2019-05-17T01:09:56.545Z,5.40
2019-05-17T01:12:29.473Z,5.30
2019-05-17T01:15:00.531Z,5.20
2019-05-17T01:17:32.471Z,5.30
2019-05-17T01:20:01.790Z,5.20
2019-05-17T01:22:38.373Z,5.20
2019-05-17T01:25:13.374Z,5.20
2019-05-17T01:27:44.518Z,5.40
2019-05-17T01:30:13.970Z,5.40
2019-05-17T01:32:47.398Z,5.50
2019-05-17T01:35:18.974Z,5.40
2019-05-17T01:37:48.625Z,5.70
2019-05-17T01:40:19.172Z,5.70
2019-05-17T01:42:54.573Z,5.60
2019-05-17T01:45:27.813Z,5.70
2019-05-17T01:48:02.295Z,5.60
2019-05-17T01:50:37.078Z,5.50
2019-05-17T01:53:11.402Z,5.30
2019-05-17T01:55:47.190Z,5.40
2019-05-17T01:58:19.063Z,5.30
2019-05-17T02:00:50.045Z,5.40
2019-05-17T02:03:26.626Z,5.40
2019-05-17T02:06:02.769Z,5.30
2019-05-17T02:08:37.037Z,5.20
2019-05-17T02:11:10.270Z,5.20
2019-05-17T02:13:48.784Z,5.30
2019-05-17T02:16:22.678Z,5.50
2019-05-17T02:18:57.465Z,5.30
2019-05-17T02:21:32.279Z,5.10
2019-05-17T02:24:09.340Z,5.20
2019-05-17T02:26:46.417Z,5.20
2019-05-17T02:29:16.853Z,5.10
2019-05-17T02:31:52.757Z,5.10
2019-05-17T02:34:26.818Z,5.10
2019-05-17T02:37:02.978Z,5.20
2019-05-17T02:39:52.471Z,5.20
2019-05-17T02:42:13.814Z,5.30
2019-05-17T02:44:48.183Z,5.20
2019-05-17T02:47:23.017Z,5.30
2019-05-17T02:49:53.924Z,5.30
2019-05-17T02:52:27.579Z,5.30
2019-05-17T02:55:03.693Z,5.30
2019-05-17T02:57:34.678Z,5.40
2019-05-17T03:00:04.656Z,5.40
2019-05-17T03:02:36.150Z,5.30
2019-05-17T03:05:13.009Z,5.40
2019-05-17T03:07:45.332Z,5.20
2019-05-17T03:10:28.795Z,5.30
2019-05-17T03:12:58.733Z,5.40
2019-05-17T03:15:33.922Z,5.50
2019-05-17T03:18:07.531Z,5.70
2019-05-17T03:20:44.422Z,6.00
2019-05-17T03:23:17.115Z,6.40
2019-05-17T03:25:48.078Z,6.60
2019-05-17T03:28:27.464Z,6.80
2019-05-17T03:31:06.831Z,7.00
2019-05-17T03:33:37.882Z,7.20
2019-05-17T03:36:08.989Z,7.30
2019-05-17T03:38:43.138Z,7.40
2019-05-17T03:41:23.503Z,7.60
2019-05-17T03:43:53.262Z,7.90
2019-05-17T03:46:25.281Z,7.90
2019-05-17T03:48:57.116Z,7.80
2019-05-17T03:51:33.037Z,8.00
2019-05-17T03:54:08.672Z,8.10
2019-05-17T03:56:47.354Z,8.20
2019-05-17T03:59:26.043Z,8.20
2019-05-17T04:01:59.431Z,8.40
2019-05-17T04:04:32.911Z,8.60
2019-05-17T04:07:04.746Z,8.70
2019-05-17T04:09:37.820Z,8.60
2019-05-17T04:12:13.849Z,8.80
2019-05-17T04:14:46.225Z,9.00
2019-05-17T04:17:19.031Z,9.00
2019-05-17T04:19:53.359Z,9.10
2019-05-17T04:22:25.207Z,9.10
2019-05-17T04:25:02.782Z,9.30
2019-05-17T04:27:33.242Z,9.20
2019-05-17T04:30:06.262Z,9.40
2019-05-17T04:32:38.232Z,9.40
2019-05-17T04:35:12.966Z,9.40
2019-05-17T04:37:45.030Z,9.50
2019-05-17T04:40:14.908Z,9.60
2019-05-17T04:42:46.541Z,9.50
2019-05-17T04:45:18.099Z,9.80
2019-05-17T04:47:52.915Z,9.70
2019-05-17T04:50:28.810Z,9.70
2019-05-17T04:53:03.367Z,9.60
2019-05-17T04:55:38.956Z,9.50
2019-05-17T04:58:15.553Z,9.50
2019-05-17T05:00:46.449Z,9.50
2019-05-17T05:03:18.517Z,9.80
2019-05-17T05:05:53.500Z,9.60
2019-05-17T05:08:26.773Z,9.70
2019-05-17T05:10:58.552Z,9.90
2019-05-17T05:13:29.460Z,10.40
2019-05-17T05:16:03.453Z,10.20
2019-05-17T05:18:33.649Z,9.90
2019-05-17T05:21:03.628Z,9.70
2019-05-17T05:23:42.497Z,10.00
2019-05-17T05:26:13.934Z,9.70
2019-05-17T05:28:44.813Z,10.10
2019-05-17T05:31:22.633Z,10.20
2019-05-17T05:33:55.524Z,10.40
2019-05-17T05:36:32.897Z,10.30
2019-05-17T05:39:06.416Z,10.20
2019-05-17T05:41:39.158Z,10.30
2019-05-17T05:44:12.247Z,10.70
2019-05-17T05:46:42.554Z,10.40
2019-05-17T05:49:22.138Z,10.20
2019-05-17T05:51:55.768Z,10.40
2019-05-17T05:54:27.508Z,10.40
2019-05-17T05:57:02.081Z,10.50
2019-05-17T05:59:38.101Z,11.00
2019-05-17T06:02:13.595Z,10.80
2019-05-17T06:04:48.309Z,11.00
2019-05-17T06:07:21.811Z,10.80
2019-05-17T06:09:54.235Z,10.60
2019-05-17T06:12:28.087Z,11.00
2019-05-17T06:15:02.719Z,10.70
2019-05-17T06:17:35.104Z,10.80
2019-05-17T06:20:08.877Z,10.80
2019-05-17T06:22:42.811Z,11.10
2019-05-17T06:25:15.829Z,11.00
2019-05-17T06:27:52.125Z,11.10
2019-05-17T06:30:23.731Z,11.10
2019-05-17T06:32:57.599Z,11.10
2019-05-17T06:35:33.521Z,11.00
2019-05-17T06:38:04.873Z,11.20
2019-05-17T06:40:38.316Z,11.20
2019-05-17T06:43:09.009Z,11.10
2019-05-17T06:45:44.570Z,11.40
2019-05-17T06:48:22.583Z,11.00
2019-05-17T06:50:54.809Z,11.40
2019-05-17T06:53:27.259Z,11.50
2019-05-17T06:56:02.908Z,11.80
2019-05-17T06:58:33.804Z,12.10
2019-05-17T07:01:04.422Z,12.30
2019-05-17T07:03:41.320Z,11.90
2019-05-17T07:06:16.706Z,12.20
2019-05-17T07:08:49.590Z,11.70
2019-05-17T07:11:23.057Z,11.80
2019-05-17T07:13:55.701Z,12.10
2019-05-17T07:16:30.098Z,12.20
2019-05-17T07:19:02.681Z,12.60
2019-05-17T07:21:40.433Z,12.80
2019-05-17T07:24:14.141Z,12.70
2019-05-17T07:26:49.798Z,12.50
2019-05-17T07:29:22.157Z,12.70
2019-05-17T07:31:52.887Z,12.10
2019-05-17T07:34:25.214Z,12.00
2019-05-17T07:36:59.650Z,12.00
2019-05-17T07:39:34.785Z,12.00
2019-05-17T07:42:09.656Z,11.90
2019-05-17T07:44:44.633Z,11.50
2019-05-17T07:47:20.446Z,11.60
2019-05-17T07:49:54.673Z,12.30
2019-05-17T07:52:29.984Z,12.30
2019-05-17T07:55:03.867Z,12.40
2019-05-17T07:57:37.333Z,12.20
2019-05-17T08:00:13.291Z,12.60
2019-05-17T08:02:44.690Z,12.40
2019-05-17T08:05:21.336Z,12.20
2019-05-17T08:07:53.997Z,12.50
2019-05-17T08:10:29.823Z,12.50
2019-05-17T08:13:01.928Z,12.80
2019-05-17T08:15:34.575Z,12.60
2019-05-17T08:18:10.779Z,12.00
2019-05-17T08:20:43.582Z,11.40
2019-05-17T08:23:15.898Z,11.50
2019-05-17T08:25:53.820Z,11.70
2019-05-17T08:28:31.515Z,11.40
2019-05-17T08:31:11.594Z,11.20
2019-05-17T08:33:47.168Z,11.20
2019-05-17T08:36:26.497Z,11.30
2019-05-17T08:38:59.792Z,11.10
2019-05-17T08:41:36.094Z,11.20
2019-05-17T08:44:09.889Z,11.20
2019-05-17T08:46:42.086Z,11.30
2019-05-17T08:49:16.937Z,11.30
2019-05-17T08:51:50.028Z,11.10
2019-05-17T08:54:24.531Z,11.10
2019-05-17T08:57:04.787Z,11.30
2019-05-17T08:59:40.410Z,11.20
2019-05-17T09:02:13.421Z,11.10
2019-05-17T09:04:49.619Z,11.60
2019-05-17T09:07:24.025Z,11.90
2019-05-17T09:09:55.977Z,11.70
2019-05-17T09:12:30.146Z,12.00
2019-05-17T09:15:05.549Z,11.80
2019-05-17T09:17:40.077Z,11.20
2019-05-17T09:20:16.130Z,11.90
2019-05-17T09:22:51.031Z,11.80
2019-05-17T09:25:26.890Z,12.00
2019-05-17T09:28:00.747Z,12.50
2019-05-17T09:30:36.409Z,12.50
2019-05-17T09:33:11.163Z,11.70
2019-05-17T09:35:41.652Z,11.30
2019-05-17T09:38:14.928Z,11.40
2019-05-17T09:40:50.689Z,11.50
2019-05-17T09:43:25.385Z,11.40
2019-05-17T09:46:01.862Z,11.50
2019-05-17T09:48:33.014Z,11.60
2019-05-17T09:51:05.496Z,12.00
2019-05-17T09:53:40.149Z,12.30
2019-05-17T09:56:14.805Z,12.30
2019-05-17T09:58:49.530Z,12.10
2019-05-17T10:01:21.614Z,12.20
2019-05-17T10:03:55.838Z,12.40
2019-05-17T10:06:28.283Z,13.00
2019-05-17T10:09:04.692Z,12.90
2019-05-17T10:11:41.238Z,12.90
2019-05-17T10:14:24.610Z,12.90
2019-05-17T10:16:48.825Z,12.70
2019-05-17T10:19:23.633Z,13.50
2019-05-17T10:21:59.636Z,13.50
2019-05-17T10:24:37.981Z,13.90
2019-05-17T10:27:04.938Z,13.80
2019-05-17T10:29:39.473Z,13.10
2019-05-17T10:32:13.016Z,13.10
2019-05-17T10:34:44.991Z,13.10
2019-05-17T10:37:20.455Z,14.30
2019-05-17T10:39:52.810Z,13.30
2019-05-17T10:42:26.757Z,13.10
2019-05-17T10:45:01.286Z,12.80
2019-05-17T10:47:35.743Z,12.50
2019-05-17T10:50:06.621Z,12.70
2019-05-17T10:52:41.254Z,12.70
2019-05-17T10:55:13.055Z,13.30
2019-05-17T10:57:45.588Z,14.50
2019-05-17T11:00:19.583Z,14.40
2019-05-17T11:02:52.729Z,14.70
2019-05-17T11:05:26.238Z,15.10
2019-05-17T11:08:00.941Z,15.10
2019-05-17T11:10:35.734Z,14.70
2019-05-17T11:13:10.569Z,15.40
2019-05-17T11:15:40.267Z,15.50
2019-05-17T11:18:11.194Z,15.90
2019-05-17T11:20:44.775Z,15.70
2019-05-17T11:23:17.252Z,16.30
2019-05-17T11:25:54.250Z,16.00
2019-05-17T11:28:30.089Z,16.20
2019-05-17T11:31:01.046Z,17.00
2019-05-17T11:33:33.295Z,17.20
2019-05-17T11:36:06.344Z,16.20
2019-05-17T11:38:36.842Z,16.80
2019-05-17T11:41:20.478Z,16.70
2019-05-17T11:43:40.543Z,14.60
2019-05-17T11:46:12.993Z,14.90
2019-05-17T11:48:49.259Z,15.10
2019-05-17T11:51:27.429Z,15.30
2019-05-17T11:53:59.420Z,14.20
2019-05-17T11:56:30.561Z,13.70
2019-05-17T11:59:00.674Z,13.70
2019-05-17T12:01:34.437Z,13.80
2019-05-17T12:04:04.337Z,13.40
2019-05-17T12:06:37.938Z,13.90
2019-05-17T12:09:09.256Z,14.30
2019-05-17T12:11:44.185Z,15.20
2019-05-17T12:14:18.551Z,15.40
2019-05-17T12:16:55.291Z,14.90
2019-05-17T12:19:28.976Z,13.40
2019-05-17T12:22:02.669Z,13.10
2019-05-17T12:24:31.923Z,13.40
2019-05-17T12:27:03.021Z,12.80
2019-05-17T12:29:37.605Z,12.80
2019-05-17T12:32:08.200Z,12.40
2019-05-17T12:34:38.728Z,12.50
2019-05-17T12:37:09.317Z,12.30
2019-05-17T12:39:44.316Z,12.20
2019-05-17T12:42:18.485Z,12.70
2019-05-17T12:44:49.689Z,13.40
2019-05-17T12:47:23.156Z,13.60
2019-05-17T12:49:56.871Z,13.50
2019-05-17T12:52:31.570Z,13.30
2019-05-17T12:55:05.221Z,14.10
2019-05-17T12:57:36.894Z,13.80
2019-05-17T13:00:08.891Z,14.40
2019-05-17T13:02:39.504Z,14.20
2019-05-17T13:05:10.398Z,14.90
2019-05-17T13:07:41.937Z,15.00
2019-05-17T13:10:13.987Z,14.20
2019-05-17T13:12:49.629Z,13.50
2019-05-17T13:15:22.602Z,13.10
2019-05-17T13:17:55.506Z,12.90
2019-05-17T13:20:29.980Z,12.90
2019-05-17T13:23:03.088Z,13.10
2019-05-17T13:25:38.546Z,13.10
2019-05-17T13:28:25.616Z,12.90
2019-05-17T13:31:00.707Z,13.50
2019-05-17T13:33:31.260Z,13.70
2019-05-17T13:36:04.875Z,13.90
2019-05-17T13:38:35.837Z,13.90
2019-05-17T13:41:06.160Z,14.10
2019-05-17T13:43:38.162Z,13.70
2019-05-17T13:46:12.298Z,13.60
2019-05-17T13:48:44.900Z,13.50
2019-05-17T13:51:16.478Z,13.20
2019-05-17T13:53:50.196Z,12.90
2019-05-17T13:56:21.788Z,12.70
2019-05-17T13:58:54.604Z,12.70
2019-05-17T14:01:29.229Z,12.60
2019-05-17T14:04:01.914Z,12.60
2019-05-17T14:06:35.298Z,12.90
2019-05-17T14:09:07.518Z,12.70
2019-05-17T14:11:42.287Z,12.60
2019-05-17T14:14:14.875Z,12.60
2019-05-17T14:16:56.958Z,12.60
2019-05-17T14:19:32.664Z,12.70
2019-05-17T14:22:07.649Z,13.40
2019-05-17T14:24:41.013Z,13.10
2019-05-17T14:27:16.187Z,12.90
2019-05-17T14:29:50.120Z,12.90
2019-05-17T14:32:22.667Z,13.00
2019-05-17T14:34:55.165Z,13.50
2019-05-17T14:37:26.583Z,13.50
2019-05-17T14:39:58.951Z,13.30
2019-05-17T14:42:30.864Z,13.10
2019-05-17T14:45:02.906Z,14.20
2019-05-17T14:47:37.382Z,13.90
2019-05-17T14:50:11.106Z,13.90
2019-05-17T14:52:44.231Z,13.10
2019-05-17T14:55:16.267Z,12.70
2019-05-17T14:57:53.441Z,13.00
2019-05-17T15:00:26.017Z,12.80
2019-05-17T15:03:01.592Z,12.50
2019-05-17T15:05:32.333Z,12.70
2019-05-17T15:08:06.318Z,12.80
2019-05-17T15:10:37.813Z,12.50
2019-05-17T15:13:09.892Z,12.80
2019-05-17T15:15:45.807Z,12.80
2019-05-17T15:18:22.799Z,13.10
2019-05-17T15:20:53.720Z,12.60
2019-05-17T15:23:30.388Z,12.30
2019-05-17T15:26:02.069Z,12.40
2019-05-17T15:28:37.547Z,12.20
2019-05-17T15:31:08.895Z,12.70
2019-05-17T15:33:42.417Z,12.30
2019-05-17T15:36:15.200Z,12.50
2019-05-17T15:38:48.905Z,13.20
2019-05-17T15:41:24.284Z,13.00
2019-05-17T15:43:58.937Z,12.40
2019-05-17T15:46:32.749Z,12.90
2019-05-17T15:49:07.600Z,13.20
2019-05-17T15:51:42.833Z,12.60
2019-05-17T15:54:13.343Z,12.20
2019-05-17T15:56:48.546Z,12.40
2019-05-17T15:59:22.205Z,12.80
2019-05-17T16:01:59.594Z,12.10
2019-05-17T16:04:33.050Z,12.60
2019-05-17T16:07:05.815Z,12.90
2019-05-17T16:09:38.169Z,12.50
2019-05-17T16:12:10.141Z,11.90
2019-05-17T16:14:42.251Z,12.40
2019-05-17T16:17:12.893Z,12.50
2019-05-17T16:19:45.967Z,12.20
2019-05-17T16:22:18.700Z,12.40
2019-05-17T16:24:52.234Z,12.20
2019-05-17T16:27:23.843Z,12.80
2019-05-17T16:29:56.769Z,12.30
2019-05-17T16:32:30.320Z,12.10
2019-05-17T16:35:02.799Z,12.30
2019-05-17T16:37:35.287Z,12.40
2019-05-17T16:40:06.600Z,12.10
2019-05-17T16:42:41.240Z,12.50
2019-05-17T16:45:14.408Z,12.30
2019-05-17T16:47:47.433Z,12.50
2019-05-17T16:50:20.766Z,12.00
2019-05-17T16:53:05.081Z,11.70
2019-05-17T16:55:43.206Z,11.80
2019-05-17T16:58:18.646Z,11.70
2019-05-17T17:00:52.267Z,11.60
2019-05-17T17:03:34.822Z,11.80
2019-05-17T17:06:01.941Z,11.40
2019-05-17T17:08:34.453Z,11.60
2019-05-17T17:11:08.239Z,11.30
2019-05-17T17:13:53.458Z,11.40
2019-05-17T17:16:27.151Z,11.60
2019-05-17T17:19:01.809Z,11.30
2019-05-17T17:21:33.306Z,11.50
2019-05-17T17:24:05.967Z,11.40
2019-05-17T17:26:39.715Z,11.60
2019-05-17T17:29:11.222Z,11.70
2019-05-17T17:31:43.346Z,11.70
2019-05-17T17:34:15.024Z,11.80
2019-05-17T17:36:47.579Z,11.70
2019-05-17T17:39:22.797Z,11.60
2019-05-17T17:41:56.268Z,11.80
2019-05-17T17:44:29.866Z,11.60
2019-05-17T17:47:01.989Z,11.20
2019-05-17T17:49:33.920Z,11.10
2019-05-17T17:52:08.058Z,10.80
2019-05-17T17:54:40.865Z,10.70
2019-05-17T17:57:12.335Z,10.70
2019-05-17T17:59:48.269Z,10.40
2019-05-17T18:02:24.068Z,10.40
2019-05-17T18:04:59.247Z,10.50
2019-05-17T18:07:31.730Z,10.60
2019-05-17T18:10:02.726Z,10.60
2019-05-17T18:12:35.175Z,10.50
2019-05-17T18:15:13.773Z,10.10
2019-05-17T18:17:47.417Z,10.30
2019-05-17T18:20:20.349Z,10.40
2019-05-17T18:22:56.357Z,10.30
2019-05-17T18:25:27.830Z,10.30
2019-05-17T18:28:01.793Z,10.20
2019-05-17T18:30:34.317Z,10.50
2019-05-17T18:33:11.315Z,10.40
2019-05-17T18:35:44.941Z,10.20
2019-05-17T18:38:38.222Z,10.10
2019-05-17T18:41:12.365Z,9.90
2019-05-17T18:43:44.177Z,10.30
2019-05-17T18:46:16.495Z,10.30
2019-05-17T18:48:50.288Z,10.30
2019-05-17T18:51:22.421Z,10.30
2019-05-17T18:53:54.222Z,10.50
2019-05-17T18:56:25.242Z,10.50
2019-05-17T18:58:55.340Z,9.90
2019-05-17T19:01:27.929Z,10.10
2019-05-17T19:03:59.879Z,10.00
2019-05-17T19:06:33.376Z,10.10
2019-05-17T19:09:03.403Z,9.80
2019-05-17T19:11:33.405Z,9.70
2019-05-17T19:14:04.016Z,9.70
2019-05-17T19:16:42.540Z,10.10
2019-05-17T19:19:16.415Z,9.90
2019-05-17T19:21:50.847Z,9.60
2019-05-17T19:24:24.307Z,9.70
2019-05-17T19:26:58.130Z,9.50
2019-05-17T19:29:29.242Z,9.60
2019-05-17T19:32:00.759Z,9.80
2019-05-17T19:34:36.770Z,9.90
2019-05-17T19:37:09.447Z,9.90
2019-05-17T19:39:43.376Z,10.00
2019-05-17T19:42:16.155Z,10.00
2019-05-17T19:44:58.707Z,9.70
2019-05-17T19:47:24.056Z,9.30
2019-05-17T19:49:57.736Z,9.40
2019-05-17T19:52:29.566Z,9.40
2019-05-17T19:55:21.069Z,9.30
2019-05-17T19:57:54.459Z,9.20
2019-05-17T20:00:26.763Z,9.20
2019-05-17T20:02:59.896Z,9.30
2019-05-17T20:05:36.808Z,9.30
2019-05-17T20:08:09.335Z,9.40
2019-05-17T20:10:42.951Z,9.30
2019-05-17T20:13:20.662Z,9.10
2019-05-17T20:15:53.194Z,9.00
2019-05-17T20:18:28.177Z,9.30
2019-05-17T20:21:20.282Z,9.20
2019-05-17T20:23:55.788Z,9.10
2019-05-17T20:26:30.475Z,9.10
2019-05-17T20:29:07.005Z,9.10
2019-05-17T20:31:38.906Z,9.10
2019-05-17T20:34:10.273Z,9.10
2019-05-17T20:36:42.943Z,9.20
2019-05-17T20:39:17.410Z,9.10
2019-05-17T20:41:51.061Z,9.10
2019-05-17T20:44:24.957Z,9.10
2019-05-17T20:46:57.482Z,9.10
2019-05-17T20:49:29.925Z,9.10
2019-05-17T20:52:03.591Z,9.10
2019-05-17T20:54:38.364Z,9.10
2019-05-17T20:57:13.068Z,9.00
2019-05-17T20:59:45.865Z,9.00
2019-05-17T21:02:18.487Z,9.00
2019-05-17T21:04:50.925Z,9.00
2019-05-17T21:07:24.709Z,9.00
2019-05-17T21:10:03.386Z,9.00
2019-05-17T21:12:38.890Z,8.90
2019-05-17T21:15:11.967Z,9.00
2019-05-17T21:17:45.594Z,8.90
2019-05-17T21:20:25.006Z,8.80
2019-05-17T21:22:57.718Z,8.80
2019-05-17T21:25:30.067Z,8.80
2019-05-17T21:28:03.633Z,8.80
2019-05-17T21:30:36.282Z,8.80
2019-05-17T21:33:10.281Z,8.80
2019-05-17T21:35:41.626Z,8.80
2019-05-17T21:38:12.363Z,8.80
2019-05-17T21:40:43.916Z,8.70
2019-05-17T21:43:17.092Z,8.70
2019-05-17T21:46:02.580Z,8.70
2019-05-17T21:48:26.661Z,8.70
2019-05-17T21:50:58.917Z,8.60
2019-05-17T21:53:29.911Z,8.70
2019-05-17T21:56:06.841Z,8.70
2019-05-17T21:58:39.516Z,8.70
2019-05-17T22:01:19.904Z,8.50
2019-05-17T22:03:54.716Z,8.60
2019-05-17T22:06:29.986Z,8.60
2019-05-17T22:09:00.115Z,8.60
2019-05-17T22:11:33.757Z,8.60
2019-05-17T22:14:05.205Z,8.50
2019-05-17T22:16:40.146Z,8.60
2019-05-17T22:19:12.628Z,8.50
2019-05-17T22:21:45.739Z,8.60
2019-05-17T22:24:20.251Z,8.50
2019-05-17T22:26:55.417Z,8.50
2019-05-17T22:29:28.563Z,8.50
2019-05-17T22:32:03.067Z,8.50
2019-05-17T22:34:35.037Z,8.50
2019-05-17T22:37:08.495Z,8.60
2019-05-17T22:39:39.040Z,8.60
2019-05-17T22:42:09.116Z,8.50
2019-05-17T22:44:42.294Z,8.40
2019-05-17T22:47:17.169Z,8.10
2019-05-17T22:49:50.979Z,8.40
2019-05-17T22:52:22.087Z,8.20
2019-05-17T22:54:51.667Z,8.20
2019-05-17T22:57:24.621Z,8.20
2019-05-17T23:00:00.389Z,8.10
2019-05-17T23:02:32.231Z,8.00
2019-05-17T23:05:03.925Z,7.90
2019-05-17T23:07:43.577Z,8.00
2019-05-17T23:10:20.709Z,8.00
2019-05-17T23:12:51.810Z,8.10
2019-05-17T23:15:21.941Z,8.10
2019-05-17T23:17:57.361Z,8.00
2019-05-17T23:20:30.009Z,8.00
2019-05-17T23:22:59.739Z,8.10
2019-05-17T23:25:34.440Z,8.00
2019-05-17T23:28:08.054Z,7.90
2019-05-17T23:30:40.695Z,8.00
2019-05-17T23:33:13.111Z,7.90
2019-05-17T23:35:46.482Z,8.00
2019-05-17T23:38:16.135Z,8.00
2019-05-17T23:40:46.836Z,8.00
2019-05-17T23:43:19.160Z,8.00
2019-05-17T23:45:56.105Z,8.00
2019-05-17T23:48:27.032Z,8.00
2019-05-17T23:50:58.893Z,7.90
2019-05-17T23:53:34.026Z,7.90
2019-05-17T23:56:05.881Z,7.90
2019-05-17T23:58:36.656Z,7.90
